PWSweather.com
Personal Weather Stations
Station Observations

LlefiĆ BadalonaES

Lat: 41.44, Lon: 2.2175

Elevation: 213.254

Station Type: oregon WMR918

http://www.estacionmeteorologicabadalonallefia.com

Latest ConditionsUpdated 9:45:01 PM GMT+01:01 Sunday, Sep 25, 2016
Currently Today's Max Today's Min Today's Average
Temperature 64.9°F18.3°C 74.4°F23.6°C 62.5°F16.9°C 68.9°F20.5°C
Dew Point 61.9°F16.6°C 64.2°F17.9°C 56.4°F13.6°C 62.2°F16.8°C
Winds 4.6 mph NW7.4 kmh NW 11.5 mph NE18.5 kmh NE - 4.4 mph 7.1 kmh
Wind Gusts 11.5 mph18.5 kmh 17.3 mph27.8 kmh - -
Humidity 90% 95% 60% 80%
Pressure 30.15 in1021.0 mb 30.18 in1022.0 mb 30.06 in1017.9 mb -
Precipitation - 0.24 in6.1 mm - -
Hour Temp Dew Point Humidity Winds Wind Gusts Pressure Precip Precip Rate Daily Precip Total
09:45 PM 64.9°F18.3°C 61.9°F16.6°C 90% 4.6 mph NW7.4 kmh NW 11.5 mph18.5 kmh 30.15 in1021.0 mb - 0.00 in0.0 mm 0.24 in6.1 mm
09:30 PM 64.9°F18.3°C 61.9°F16.6°C 90% 4.6 mph NW7.4 kmh NW 6.9 mph11.1 kmh 30.15 in1021.0 mb - 0.00 in0.0 mm 0.24 in6.1 mm
09:15 PM 64.6°F18.1°C 62.8°F17.1°C 94% Calm Calm 5.8 mph9.3 kmh 30.18 in1022.0 mb - 0.00 in0.0 mm 0.24 in6.1 mm
09:00 PM 64.4°F18.0°C 62.6°F17.0°C 94% Calm Calm -- 30.18 in1022.0 mb - 0.00 in0.0 mm 0.24 in6.1 mm
08:45 PM 64.6°F18.1°C 62.5°F16.9°C 93% 3.5 mph NW5.6 kmh NW 6.9 mph11.1 kmh 30.18 in1022.0 mb - 0.01 in0.3 mm 0.24 in6.1 mm
08:30 PM 65.4°F18.6°C 62.4°F16.9°C 90% Calm Calm 6.9 mph11.1 kmh 30.15 in1021.0 mb - 0.00 in0.0 mm 0.23 in5.8 mm
08:15 PM 66.0°F18.9°C 61.7°F16.5°C 86% Calm Calm 6.9 mph11.1 kmh 30.15 in1021.0 mb - 0.00 in0.0 mm 0.23 in5.8 mm
08:00 PM 65.5°F18.6°C 61.2°F16.2°C 86% Calm Calm -- 30.15 in1021.0 mb - 0.00 in0.0 mm 0.23 in5.8 mm
07:45 PM 65.1°F18.4°C 61.2°F16.2°C 87% Calm Calm -- 30.15 in1021.0 mb - 0.01 in0.3 mm 0.23 in5.8 mm
07:30 PM 64.9°F18.3°C 61.3°F16.3°C 88% 3.5 mph N5.6 kmh N 4.6 mph7.4 kmh 30.15 in1021.0 mb - 0.01 in0.3 mm 0.22 in5.6 mm
07:15 PM 64.6°F18.1°C 61.3°F16.3°C 89% 4.6 mph E7.4 kmh E 8.1 mph13.0 kmh 30.15 in1021.0 mb - 0.03 in0.8 mm 0.21 in5.3 mm
07:00 PM 64.9°F18.3°C 61.3°F16.3°C 88% 5.8 mph NE9.3 kmh NE 10.4 mph16.7 kmh 30.15 in1021.0 mb - 0.02 in0.5 mm 0.18 in4.6 mm
06:45 PM 65.3°F18.5°C 60.3°F15.7°C 84% Calm Calm 4.6 mph7.4 kmh 30.15 in1021.0 mb - 0.07 in1.8 mm 0.16 in4.1 mm
06:30 PM 65.6°F18.7°C 59.6°F15.3°C 81% 11.5 mph NE18.5 kmh NE 17.3 mph27.8 kmh 30.18 in1022.0 mb - 0.09 in2.3 mm 0.09 in2.3 mm
06:15 PM 71.0°F21.7°C 56.4°F13.6°C 60% 8.1 mph NNE13.0 kmh NNE 11.5 mph18.5 kmh 30.15 in1021.0 mb - 0.00 in0.0 mm 0.00 in0.0 mm
06:00 PM 73.4°F23.0°C 63.4°F17.4°C 71% 2.3 mph SE3.7 kmh SE 4.6 mph7.4 kmh 30.12 in1020.0 mb - 0.00 in0.0 mm 0.00 in0.0 mm
05:45 PM 73.6°F23.1°C 63.6°F17.6°C 71% 4.6 mph SE7.4 kmh SE 3.5 mph5.6 kmh 30.09 in1019.0 mb - 0.00 in0.0 mm 0.00 in0.0 mm
05:30 PM 73.6°F23.1°C 64.0°F17.8°C 72% 4.6 mph S7.4 kmh S 8.1 mph13.0 kmh 30.09 in1019.0 mb - 0.00 in0.0 mm 0.00 in0.0 mm
05:15 PM 73.8°F23.2°C 63.4°F17.4°C 70% 5.8 mph ESE9.3 kmh ESE 10.4 mph16.7 kmh 30.09 in1019.0 mb - 0.00 in0.0 mm 0.00 in0.0 mm
05:00 PM 73.8°F23.2°C 63.8°F17.7°C 71% 5.8 mph S9.3 kmh S 11.5 mph18.5 kmh 30.09 in1019.0 mb - 0.00 in0.0 mm 0.00 in0.0 mm
04:45 PM 73.9°F23.3°C 63.1°F17.3°C 69% 4.6 mph SE7.4 kmh SE 12.7 mph20.4 kmh 30.09 in1019.0 mb - 0.00 in0.0 mm 0.00 in0.0 mm
04:30 PM 73.9°F23.3°C 63.5°F17.5°C 70% 3.5 mph SSW5.6 kmh SSW 10.4 mph16.7 kmh 30.09 in1019.0 mb - 0.00 in0.0 mm 0.00 in0.0 mm
04:15 PM 73.8°F23.2°C 63.4°F17.4°C 70% 8.1 mph SSE13.0 kmh SSE 11.5 mph18.5 kmh 30.06 in1017.9 mb - 0.00 in0.0 mm 0.00 in0.0 mm
04:00 PM 74.0°F23.3°C 63.6°F17.6°C 70% 3.5 mph SE5.6 kmh SE 10.4 mph16.7 kmh 30.06 in1017.9 mb - 0.00 in0.0 mm 0.00 in0.0 mm
03:45 PM 73.8°F23.2°C 63.4°F17.4°C 70% 6.9 mph S11.1 kmh S 12.7 mph20.4 kmh 30.06 in1017.9 mb - 0.00 in0.0 mm 0.00 in0.0 mm
03:30 PM 74.1°F23.4°C 63.3°F17.4°C 69% 8.1 mph S13.0 kmh S 10.4 mph16.7 kmh 30.09 in1019.0 mb - 0.00 in0.0 mm 0.00 in0.0 mm
03:15 PM 73.8°F23.2°C 64.2°F17.9°C 72% 5.8 mph SE9.3 kmh SE 11.5 mph18.5 kmh 30.09 in1019.0 mb - 0.00 in0.0 mm 0.00 in0.0 mm
03:00 PM 73.5°F23.1°C 63.5°F17.5°C 71% 5.8 mph SSE9.3 kmh SSE 10.4 mph16.7 kmh 30.06 in1017.9 mb - 0.00 in0.0 mm 0.00 in0.0 mm
02:45 PM 73.6°F23.1°C 64.0°F17.8°C 72% 4.6 mph SSE7.4 kmh SSE 10.4 mph16.7 kmh 30.06 in1017.9 mb - 0.00 in0.0 mm 0.00 in0.0 mm
02:30 PM 73.4°F23.0°C 63.4°F17.4°C 71% 9.2 mph S14.8 kmh S 13.8 mph22.2 kmh 30.09 in1019.0 mb - 0.00 in0.0 mm 0.00 in0.0 mm
02:15 PM 73.4°F23.0°C 63.4°F17.4°C 71% 8.1 mph S13.0 kmh S 12.7 mph20.4 kmh 30.09 in1019.0 mb - 0.00 in0.0 mm 0.00 in0.0 mm
02:00 PM 73.2°F22.9°C 63.6°F17.6°C 72% 8.1 mph S13.0 kmh S 10.4 mph16.7 kmh 30.09 in1019.0 mb - 0.00 in0.0 mm 0.00 in0.0 mm
01:45 PM 73.6°F23.1°C 62.4°F16.9°C 68% 8.1 mph SSE13.0 kmh SSE 16.1 mph25.9 kmh 30.09 in1019.0 mb - 0.00 in0.0 mm 0.00 in0.0 mm
01:30 PM 73.9°F23.3°C 61.0°F16.1°C 64% 8.1 mph SSE13.0 kmh SSE 10.4 mph16.7 kmh 30.09 in1019.0 mb - 0.00 in0.0 mm 0.00 in0.0 mm
01:15 PM 74.2°F23.4°C 60.8°F16.0°C 63% 6.9 mph SSE11.1 kmh SSE 11.5 mph18.5 kmh 30.09 in1019.0 mb - 0.00 in0.0 mm 0.00 in0.0 mm
01:00 PM 73.9°F23.3°C 60.5°F15.8°C 63% 5.8 mph S9.3 kmh S 12.7 mph20.4 kmh 30.09 in1019.0 mb - 0.00 in0.0 mm 0.00 in0.0 mm
12:45 PM 74.1°F23.4°C 61.6°F16.4°C 65% 4.6 mph S7.4 kmh S 8.1 mph13.0 kmh 30.12 in1020.0 mb - 0.00 in0.0 mm 0.00 in0.0 mm
12:30 PM 74.1°F23.4°C 60.3°F15.7°C 62% 5.8 mph SSE9.3 kmh SSE 6.9 mph11.1 kmh 30.12 in1020.0 mb - 0.00 in0.0 mm 0.00 in0.0 mm
12:15 PM 74.4°F23.6°C 61.0°F16.1°C 63% Calm Calm 8.1 mph13.0 kmh 30.12 in1020.0 mb - 0.00 in0.0 mm 0.00 in0.0 mm
12:00 PM 73.4°F23.0°C 61.3°F16.3°C 66% 4.6 mph ESE7.4 kmh ESE 8.1 mph13.0 kmh 30.12 in1020.0 mb - 0.00 in0.0 mm 0.00 in0.0 mm
11:45 AM 73.8°F23.2°C 62.1°F16.7°C 67% 4.6 mph SE7.4 kmh SE 6.9 mph11.1 kmh 30.12 in1020.0 mb - 0.00 in0.0 mm 0.00 in0.0 mm
11:30 AM 73.9°F23.3°C 61.8°F16.6°C 66% 4.6 mph SE7.4 kmh SE 10.4 mph16.7 kmh 30.12 in1020.0 mb - 0.00 in0.0 mm 0.00 in0.0 mm
11:15 AM 73.2°F22.9°C 60.7°F15.9°C 65% 4.6 mph SSE7.4 kmh SSE 10.4 mph16.7 kmh 30.12 in1020.0 mb - 0.00 in0.0 mm 0.00 in0.0 mm
11:00 AM 73.4°F23.0°C 60.9°F16.1°C 65% 2.3 mph ESE3.7 kmh ESE 4.6 mph7.4 kmh 30.12 in1020.0 mb - 0.00 in0.0 mm 0.00 in0.0 mm
10:45 AM 73.4°F23.0°C 63.4°F17.4°C 71% Calm Calm -- 30.12 in1020.0 mb - 0.00 in0.0 mm 0.00 in0.0 mm
10:30 AM 71.9°F22.2°C 63.2°F17.3°C 74% Calm Calm -- 30.12 in1020.0 mb - 0.00 in0.0 mm 0.00 in0.0 mm
10:15 AM 70.6°F21.4°C 62.7°F17.1°C 76% Calm Calm 4.6 mph7.4 kmh 30.12 in1020.0 mb - 0.00 in0.0 mm 0.00 in0.0 mm
10:00 AM 69.3°F20.7°C 61.8°F16.6°C 77% 3.5 mph NW5.6 kmh NW 10.4 mph16.7 kmh 30.12 in1020.0 mb - 0.00 in0.0 mm 0.00 in0.0 mm
09:45 AM 68.3°F20.2°C 61.6°F16.4°C 79% 6.9 mph NW11.1 kmh NW 10.4 mph16.7 kmh 30.12 in1020.0 mb - 0.00 in0.0 mm 0.00 in0.0 mm
09:30 AM 67.6°F19.8°C 61.6°F16.4°C 81% 5.8 mph NW9.3 kmh NW 10.4 mph16.7 kmh 30.12 in1020.0 mb - 0.00 in0.0 mm 0.00 in0.0 mm
09:15 AM 67.1°F19.5°C 61.8°F16.6°C 83% 5.8 mph WNW9.3 kmh WNW 9.2 mph14.8 kmh 30.12 in1020.0 mb - 0.00 in0.0 mm 0.00 in0.0 mm
09:00 AM 66.6°F19.2°C 61.6°F16.4°C 84% 5.8 mph NW9.3 kmh NW 8.1 mph13.0 kmh 30.12 in1020.0 mb - 0.00 in0.0 mm 0.00 in0.0 mm
08:45 AM 66.2°F19.0°C 61.9°F16.6°C 86% 5.8 mph NW9.3 kmh NW 10.4 mph16.7 kmh 30.12 in1020.0 mb - 0.00 in0.0 mm 0.00 in0.0 mm
08:30 AM 65.9°F18.8°C 62.2°F16.8°C 88% 5.8 mph NW9.3 kmh NW 10.4 mph16.7 kmh 30.12 in1020.0 mb - 0.00 in0.0 mm 0.00 in0.0 mm
08:15 AM 65.1°F18.4°C 62.0°F16.7°C 90% 5.8 mph NW9.3 kmh NW 10.4 mph16.7 kmh 30.12 in1020.0 mb - 0.00 in0.0 mm 0.00 in0.0 mm
08:00 AM 64.2°F17.9°C 61.2°F16.2°C 90% 4.6 mph NW7.4 kmh NW 8.1 mph13.0 kmh 30.12 in1020.0 mb - 0.00 in0.0 mm 0.00 in0.0 mm
07:45 AM 64.0°F17.8°C 61.4°F16.3°C 91% 5.8 mph NNW9.3 kmh NNW 10.4 mph16.7 kmh 30.12 in1020.0 mb - 0.00 in0.0 mm 0.00 in0.0 mm
07:30 AM 63.9°F17.7°C 61.8°F16.6°C 93% 2.3 mph NW3.7 kmh NW 8.1 mph13.0 kmh 30.12 in1020.0 mb - 0.00 in0.0 mm 0.00 in0.0 mm
07:15 AM 63.1°F17.3°C 61.4°F16.3°C 94% 2.3 mph NW3.7 kmh NW 6.9 mph11.1 kmh 30.12 in1020.0 mb - 0.00 in0.0 mm 0.00 in0.0 mm
07:00 AM 62.8°F17.1°C 61.3°F16.3°C 95% 4.6 mph NNW7.4 kmh NNW 10.4 mph16.7 kmh 30.12 in1020.0 mb - 0.00 in0.0 mm 0.00 in0.0 mm
06:45 AM 62.5°F16.9°C 61.0°F16.1°C 95% 4.6 mph NW7.4 kmh NW 8.1 mph13.0 kmh 30.12 in1020.0 mb - 0.00 in0.0 mm 0.00 in0.0 mm
06:30 AM 62.6°F17.0°C 61.1°F16.2°C 95% 5.8 mph NW9.3 kmh NW 10.4 mph16.7 kmh 30.12 in1020.0 mb - 0.00 in0.0 mm 0.00 in0.0 mm
06:15 AM 63.0°F17.2°C 61.5°F16.4°C 95% 8.1 mph NW13.0 kmh NW 10.4 mph16.7 kmh 30.09 in1019.0 mb - 0.00 in0.0 mm 0.00 in0.0 mm
06:00 AM 63.3°F17.4°C 61.6°F16.4°C 94% 6.9 mph NW11.1 kmh NW 10.4 mph16.7 kmh 30.09 in1019.0 mb - 0.00 in0.0 mm 0.00 in0.0 mm
05:45 AM 63.7°F17.6°C 61.9°F16.6°C 94% 6.9 mph NW11.1 kmh NW 10.4 mph16.7 kmh 30.09 in1019.0 mb - 0.00 in0.0 mm 0.00 in0.0 mm
05:30 AM 64.2°F17.9°C 61.5°F16.4°C 91% 6.9 mph NW11.1 kmh NW 10.4 mph16.7 kmh 30.09 in1019.0 mb - 0.00 in0.0 mm 0.00 in0.0 mm
02:30 AM 65.7°F18.7°C 63.0°F17.2°C 91% 5.8 mph NW9.3 kmh NW 8.1 mph13.0 kmh 30.12 in1020.0 mb - 0.00 in0.0 mm 0.00 in0.0 mm
02:15 AM 65.8°F18.8°C 62.8°F17.1°C 90% 3.5 mph NW5.6 kmh NW 8.1 mph13.0 kmh 30.12 in1020.0 mb - 0.00 in0.0 mm 0.00 in0.0 mm
02:00 AM 66.0°F18.9°C 63.0°F17.2°C 90% 3.5 mph NW5.6 kmh NW 10.4 mph16.7 kmh 30.12 in1020.0 mb - 0.00 in0.0 mm 0.00 in0.0 mm
01:45 AM 66.4°F19.1°C 63.0°F17.2°C 89% 5.8 mph NW9.3 kmh NW 8.1 mph13.0 kmh 30.12 in1020.0 mb - 0.00 in0.0 mm 0.00 in0.0 mm
01:30 AM 66.9°F19.4°C 62.6°F17.0°C 86% 4.6 mph NW7.4 kmh NW 8.1 mph13.0 kmh 30.12 in1020.0 mb - 0.00 in0.0 mm 0.00 in0.0 mm
01:15 AM 67.6°F19.8°C 61.6°F16.4°C 81% 2.3 mph NW3.7 kmh NW 5.8 mph9.3 kmh 30.12 in1020.0 mb - 0.00 in0.0 mm 0.00 in0.0 mm
01:00 AM 67.3°F19.6°C 62.3°F16.8°C 84% Calm Calm -- 30.12 in1020.0 mb - 0.00 in0.0 mm 0.00 in0.0 mm
12:45 AM 67.3°F19.6°C 63.3°F17.4°C 87% Calm Calm -- 30.12 in1020.0 mb - 0.00 in0.0 mm 0.00 in0.0 mm
12:30 AM 67.3°F19.6°C 63.6°F17.6°C 88% Calm Calm -- 30.12 in1020.0 mb - 0.00 in0.0 mm 0.00 in0.0 mm
12:15 AM 67.3°F19.6°C 63.9°F17.7°C 89% 2.3 mph NE3.7 kmh NE 5.8 mph9.3 kmh 30.12 in1020.0 mb - 0.00 in0.0 mm 0.00 in0.0 mm
12:00 AM 67.3°F19.6°C 63.9°F17.7°C 89% 3.5 mph NW5.6 kmh NW 8.1 mph13.0 kmh 30.12 in1020.0 mb - 0.00 in0.0 mm 0.00 in0.0 mm